Time;durP1;ratioP1;P1;durP2;ratioP2;P2;SDS_P1;SDS_P2;PMS_P1;PMS_P2;Temp;Humidity;BMP_temperature;BMP_pressure;BME280_temperature;BME280_humidity;BME280_pressure;Samples;Min_cycle;Max_cycle;Signal;HPM_P1;HPM_P2
2022/05/14 00:00:18;;;;;;;;;4.75;3.00;;;;;19.53;41.04;101836.66;5059028;28;45878;-71
2022/05/14 00:02:44;;;;;;;;;1.75;1.75;;;;;19.44;40.83;101827.19;5063198;28;45587;-71
2022/05/14 00:05:09;;;;;;;;;3.75;2.75;;;;;19.53;41.10;101836.66;5058463;28;45488;-71
2022/05/14 00:07:35;;;;;;;;;3.00;3.00;;;;;19.47;40.77;101840.56;5068251;28;45319;-71
2022/05/14 00:10:02;;;;;;;;;3.25;3.25;;;;;19.42;41.07;101837.25;5077955;28;46391;-71
2022/05/14 00:15:11;;;;;;;;;4.00;3.00;;;;;19.29;41.26;101830.72;5062892;28;45306;-71
2022/05/14 00:17:36;;;;;;;;;3.00;3.00;;;;;19.25;41.20;101832.72;5062563;28;45397;-71
2022/05/14 00:20:02;;;;;;;;;3.00;2.75;;;;;19.23;41.44;101837.34;5069668;28;45474;-71
2022/05/14 00:22:27;;;;;;;;;3.50;3.50;;;;;19.16;41.20;101838.56;5074935;28;45417;-71
2022/05/14 00:24:53;;;;;;;;;4.00;3.00;;;;;19.11;41.45;101833.41;5072123;28;45417;-71
2022/05/14 00:27:18;;;;;;;;;4.00;3.00;;;;;19.02;41.69;101829.31;5069511;28;45573;-71
2022/05/14 00:29:43;;;;;;;;;2.75;2.00;;;;;18.97;41.60;101819.69;5063937;28;46115;-71
2022/05/14 00:32:09;;;;;;;;;3.00;2.75;;;;;18.98;41.38;101824.19;5069217;28;45360;-71
2022/05/14 00:34:34;;;;;;;;;2.25;2.25;;;;;19.03;41.55;101831.09;5069575;28;45337;-71
2022/05/14 00:37:00;;;;;;;;;2.00;2.00;;;;;18.99;41.67;101825.91;5060927;28;45293;-71
2022/05/14 00:39:26;;;;;;;;;4.75;3.00;;;;;19.04;41.70;101826.56;5063348;28;46099;-71
2022/05/14 00:41:51;;;;;;;;;3.50;2.00;;;;;19.00;41.54;101816.84;5068326;28;45373;-71
2022/05/14 00:44:17;;;;;;;;;2.50;2.50;;;;;18.98;41.38;101816.06;5058885;28;45282;-71
2022/05/14 00:46:57;;;;;;;;;3.00;3.00;;;;;19.03;41.98;101824.81;5061298;28;45500;-71
2022/05/14 00:49:25;;;;;;;;;2.75;2.75;;;;;18.96;41.92;101809.81;5062676;28;45506;-71
2022/05/14 00:51:51;;;;;;;;;2.00;2.00;;;;;19.02;41.70;101818.50;5069318;28;45481;-71
2022/05/14 00:54:21;;;;;;;;;2.25;2.00;;;;;18.91;41.80;101801.06;5062828;28;45524;-71
2022/05/14 00:56:52;;;;;;;;;4.25;4.25;;;;;18.86;41.73;101799.50;5069518;28;45420;-71
2022/05/14 00:59:21;;;;;;;;;4.00;4.00;;;;;18.92;42.05;101809.09;5059259;28;45260;-71
2022/05/14 01:01:48;;;;;;;;;6.50;4.00;;;;;18.87;41.92;101811.16;5059484;28;45448;-71
2022/05/14 01:04:14;;;;;;;;;3.50;2.50;;;;;18.83;42.10;101806.88;5064660;28;45521;-71
2022/05/14 01:06:51;;;;;;;;;3.25;3.25;;;;;18.81;41.81;101801.50;5060721;28;45856;-71
2022/05/14 01:09:17;;;;;;;;;4.00;3.25;;;;;18.83;41.90;101809.59;5058874;28;45498;-71
2022/05/14 01:11:43;;;;;;;;;3.75;2.75;;;;;18.82;42.44;101811.38;5058783;27;45224;-71
2022/05/14 01:14:09;;;;;;;;;3.50;3.50;;;;;18.79;41.99;101805.22;5059661;28;45347;-71
2022/05/14 01:16:34;;;;;;;;;3.00;3.00;;;;;18.81;41.74;101804.22;5062476;28;46008;-71
2022/05/14 01:19:00;;;;;;;;;4.00;3.00;;;;;18.82;42.09;101807.78;5067467;28;47228;-71
2022/05/14 01:21:48;;;;;;;;;4.00;4.00;;;;;18.84;42.00;101798.69;5058944;28;45444;-71
2022/05/14 01:27:10;;;;;;;;;3.50;2.75;;;;;18.74;42.32;101794.63;5063695;28;45241;-71
2022/05/14 01:29:38;;;;;;;;;3.25;2.50;;;;;18.78;42.22;101798.97;5062803;28;46036;-71
2022/05/14 01:32:03;;;;;;;;;2.50;2.50;;;;;18.78;41.77;101800.81;5060716;28;45505;-71
2022/05/14 01:34:34;;;;;;;;;2.00;2.00;;;;;18.72;42.45;101795.69;5065538;28;45299;-71
2022/05/14 01:37:00;;;;;;;;;2.00;2.00;;;;;18.71;42.25;101802.94;5064444;28;45599;-71
2022/05/14 01:39:26;;;;;;;;;3.50;3.00;;;;;18.70;42.60;101793.06;5077628;28;46779;-71
2022/05/14 01:41:51;;;;;;;;;3.00;3.00;;;;;18.70;42.07;101790.34;5062192;28;45362;-71
2022/05/14 01:44:17;;;;;;;;;4.00;3.25;;;;;18.67;42.53;101799.47;5064784;27;45175;-71
2022/05/14 01:46:43;;;;;;;;;2.75;1.00;;;;;18.63;42.09;101797.03;5074415;28;45560;-71
2022/05/14 01:49:08;;;;;;;;;2.25;2.25;;;;;18.57;42.73;101800.88;5061981;28;46275;-71
2022/05/14 01:51:34;;;;;;;;;3.00;3.00;;;;;18.52;42.23;101789.44;5073700;28;45304;-71
2022/05/14 01:54:00;;;;;;;;;3.75;3.75;;;;;18.54;42.28;101790.22;5062798;28;45280;-71
2022/05/14 01:56:25;;;;;;;;;4.00;3.00;;;;;18.52;42.78;101793.00;5065498;28;45342;-71
2022/05/14 01:58:50;;;;;;;;;2.00;2.00;;;;;18.49;42.88;101790.47;5060558;28;46167;-71
2022/05/14 02:01:25;;;;;;;;;2.00;2.00;;;;;18.55;42.44;101791.13;5062125;28;45303;-71
2022/05/14 02:03:54;;;;;;;;;2.75;2.75;;;;;18.50;42.61;101784.09;5069113;28;45322;-71
2022/05/14 02:06:21;;;;;;;;;3.00;3.00;;;;;18.52;42.53;101790.28;5069553;28;45391;-71
2022/05/14 02:08:47;;;;;;;;;2.25;1.75;;;;;18.54;42.42;101786.66;5077050;28;47440;-71
2022/05/14 02:11:14;;;;;;;;;4.00;4.00;;;;;18.52;42.32;101789.44;5061783;28;45470;-71
2022/05/14 02:13:41;;;;;;;;;1.50;1.50;;;;;18.57;42.83;101784.66;5061616;28;45550;-71
2022/05/14 02:16:06;;;;;;;;;3.50;3.00;;;;;18.57;42.85;101770.28;5061862;28;45571;-71
2022/05/14 02:18:32;;;;;;;;;3.50;2.50;;;;;18.52;42.30;101768.66;5073783;28;46305;-71
2022/05/14 02:20:58;;;;;;;;;2.00;2.00;;;;;18.54;42.33;101779.41;5073336;28;45573;-71
2022/05/14 02:23:23;;;;;;;;;3.50;1.75;;;;;18.57;42.16;101789.22;5067434;28;45417;-71
2022/05/14 02:25:49;;;;;;;;;4.00;2.25;;;;;18.56;42.42;101773.91;5069758;28;45401;-71
2022/05/14 02:28:16;;;;;;;;;4.00;3.00;;;;;18.58;42.20;101783.72;5070882;28;46209;-71
2022/05/14 02:30:41;;;;;;;;;3.50;1.50;;;;;18.48;42.35;101786.00;5071006;28;46220;-71
2022/05/14 02:33:07;;;;;;;;;1.00;1.00;;;;;18.47;42.66;101786.06;5076579;28;45763;-71
2022/05/14 02:35:32;;;;;;;;;2.25;1.50;;;;;18.45;42.47;101782.56;5073532;28;45364;-71
2022/05/14 02:37:58;;;;;;;;;1.25;1.00;;;;;18.42;42.03;101788.13;5074724;28;46123;-71
2022/05/14 02:40:24;;;;;;;;;1.00;1.00;;;;;18.41;42.32;101778.25;5069469;28;45299;-71
2022/05/14 02:42:49;;;;;;;;;2.50;2.00;;;;;18.40;42.41;101777.38;5061208;27;45478;-71
2022/05/14 02:45:15;;;;;;;;;1.75;1.75;;;;;18.43;42.10;101785.34;5071784;28;45270;-71
2022/05/14 02:47:40;;;;;;;;;2.25;2.00;;;;;18.45;42.56;101791.56;5066263;28;45386;-71
2022/05/14 02:50:08;;;;;;;;;2.75;2.75;;;;;18.43;42.88;101779.94;5066471;28;45263;-71
2022/05/14 02:52:33;;;;;;;;;1.75;1.75;;;;;18.43;42.44;101788.06;5076563;28;45405;-71
2022/05/14 02:54:59;;;;;;;;;2.50;2.50;;;;;18.41;42.93;101784.56;5067306;28;45322;-71
2022/05/14 02:57:24;;;;;;;;;2.00;2.00;;;;;18.35;42.63;101782.16;5064240;28;45488;-71
2022/05/14 02:59:50;;;;;;;;;5.00;3.25;;;;;18.33;42.80;101787.63;5071313;28;45282;-71
2022/05/14 03:02:15;;;;;;;;;3.00;3.00;;;;;18.28;43.26;101786.09;5065107;28;45559;-71
2022/05/14 03:04:44;;;;;;;;;5.00;4.00;;;;;18.26;43.09;101785.28;5069690;28;45253;-71
2022/05/14 03:07:10;;;;;;;;;1.50;1.50;;;;;18.22;42.97;101795.38;5073937;28;45468;-71
2022/05/14 03:09:38;;;;;;;;;5.00;3.75;;;;;18.09;43.53;101786.09;5070820;28;45305;-71
2022/05/14 03:12:04;;;;;;;;;3.75;3.00;;;;;18.08;43.75;101793.31;5060629;28;45343;-71
2022/05/14 03:14:30;;;;;;;;;6.75;3.25;;;;;18.04;43.21;101789.03;5063774;28;45494;-71
2022/05/14 03:16:55;;;;;;;;;5.25;2.75;;;;;18.03;43.27;101789.97;5062089;28;45474;-71
2022/05/14 03:19:21;;;;;;;;;4.00;4.00;;;;;18.00;43.33;101786.53;5059082;28;45937;-71
2022/05/14 03:21:46;;;;;;;;;3.50;2.25;;;;;17.92;43.63;101782.34;5073116;28;45739;-71
2022/05/14 03:24:12;;;;;;;;;3.25;3.25;;;;;17.90;43.58;101784.25;5058875;28;45473;-71
2022/05/14 03:26:39;;;;;;;;;3.00;1.75;;;;;17.95;43.65;101790.31;5058957;28;45483;-71
2022/05/14 03:29:05;;;;;;;;;5.00;3.00;;;;;17.97;43.47;101790.25;5067222;28;45275;-71
2022/05/14 03:31:31;;;;;;;;;3.75;2.25;;;;;17.94;43.38;101784.97;5071472;28;45358;-71
2022/05/14 03:33:57;;;;;;;;;1.75;1.75;;;;;17.95;43.66;101792.16;5060166;28;45537;-71
2022/05/14 03:36:23;;;;;;;;;2.25;2.25;;;;;17.96;43.82;101794.78;5073774;28;45377;-71
2022/05/14 03:38:49;;;;;;;;;1.75;1.75;;;;;17.85;44.01;101758.38;5059647;28;45437;-71
2022/05/14 03:41:17;;;;;;;;;3.50;2.75;;;;;17.94;43.64;101788.59;5060235;28;45324;-71
2022/05/14 03:43:44;;;;;;;;;2.25;2.25;;;;;17.93;43.61;101786.81;5066290;28;45799;-71
2022/05/14 03:46:10;;;;;;;;;2.00;2.00;;;;;17.88;43.44;101782.59;5062108;28;46387;-71
2022/05/14 03:48:36;;;;;;;;;3.25;2.75;;;;;17.89;43.59;101790.63;5064185;28;45219;-71
2022/05/14 03:51:02;;;;;;;;;3.50;2.00;;;;;17.87;43.84;101787.09;5075650;28;45370;-71
2022/05/14 03:53:28;;;;;;;;;6.50;2.75;;;;;17.88;43.98;101794.25;5080311;28;45368;-71
2022/05/14 03:55:53;;;;;;;;;3.00;2.75;;;;;17.85;43.88;101786.25;5062574;28;45642;-71
2022/05/14 03:58:18;;;;;;;;;2.25;2.25;;;;;17.88;44.05;101780.75;5071017;28;45404;-71
2022/05/14 04:00:44;;;;;;;;;3.00;2.75;;;;;17.94;44.05;101799.38;5062414;28;45357;-71
2022/05/14 04:03:11;;;;;;;;;3.00;3.00;;;;;17.96;43.58;101794.78;5070407;28;45695;-71
2022/05/14 04:05:36;;;;;;;;;2.00;2.00;;;;;17.97;43.72;101787.53;5075892;28;45480;-71
2022/05/14 04:08:02;;;;;;;;;2.00;1.75;;;;;17.95;43.84;101786.75;5059548;28;45295;-71
2022/05/14 04:10:27;;;;;;;;;3.50;2.00;;;;;17.83;44.02;101774.66;5073709;28;45408;-71
2022/05/14 04:12:53;;;;;;;;;2.00;2.00;;;;;17.92;44.03;101785.06;5068969;28;45405;-71
2022/05/14 04:15:19;;;;;;;;;1.75;1.75;;;;;17.87;44.07;101783.53;5059782;28;45956;-71
2022/05/14 04:17:44;;;;;;;;;1.75;1.75;;;;;17.83;44.04;101784.59;5060352;28;45223;-71
2022/05/14 04:20:10;;;;;;;;;2.75;2.75;;;;;17.84;43.97;101789.03;5064302;28;45224;-72
2022/05/14 04:22:35;;;;;;;;;2.50;2.50;;;;;17.78;43.88;101788.38;5061242;28;45496;-71
2022/05/14 04:25:01;;;;;;;;;1.00;1.00;;;;;17.69;43.65;101786.09;5059168;28;45409;-71
2022/05/14 04:27:26;;;;;;;;;2.50;2.50;;;;;17.73;44.18;101797.63;5058990;28;45560;-71
2022/05/14 04:29:52;;;;;;;;;2.00;2.00;;;;;17.70;43.98;101785.13;5068845;28;45520;-71
2022/05/14 04:32:18;;;;;;;;;3.25;2.00;;;;;17.70;44.38;101789.69;5067219;28;45528;-71
2022/05/14 04:34:43;;;;;;;;;3.00;3.00;;;;;17.68;43.98;101787.03;5075853;28;45437;-72
2022/05/14 04:37:09;;;;;;;;;1.00;1.00;;;;;17.65;44.06;101784.47;5068596;28;45437;-71
2022/05/14 04:39:34;;;;;;;;;2.00;2.00;;;;;17.69;44.25;101787.91;5059612;28;45393;-71
2022/05/14 04:42:06;;;;;;;;;2.25;1.25;;;;;17.68;43.94;101789.75;5060489;28;45599;-71
2022/05/14 04:44:33;;;;;;;;;2.75;2.00;;;;;17.70;43.96;101800.47;5062883;27;46630;-72
2022/05/14 04:46:58;;;;;;;;;1.75;1.75;;;;;17.65;44.17;101797.97;5071950;28;45376;-71
2022/05/14 04:49:24;;;;;;;;;1.50;1.50;;;;;17.61;44.05;101796.38;5063378;28;45353;-71
2022/05/14 04:51:49;;;;;;;;;4.00;3.00;;;;;17.59;44.32;101782.03;5065514;28;45605;-71
2022/05/14 04:54:15;;;;;;;;;3.00;3.00;;;;;17.64;44.27;101801.66;5058898;28;46249;-71
2022/05/14 04:56:41;;;;;;;;;4.50;2.25;;;;;17.58;44.46;101791.13;5074617;28;45387;-71
2022/05/14 04:59:07;;;;;;;;;4.00;2.75;;;;;17.62;44.54;101799.94;5072667;28;45180;-71
2022/05/14 05:01:33;;;;;;;;;2.00;2.00;;;;;17.51;44.23;101795.03;5082007;28;45445;-71
2022/05/14 05:03:58;;;;;;;;;2.50;1.50;;;;;17.46;44.34;101795.25;5081261;28;47257;-71
2022/05/14 05:06:24;;;;;;;;;4.25;2.00;;;;;17.43;44.72;101799.91;5072526;28;45268;-71
2022/05/14 05:08:52;;;;;;;;;2.00;1.50;;;;;17.38;44.40;101800.97;5067239;28;45270;-71
2022/05/14 05:11:18;;;;;;;;;2.50;1.50;;;;;17.37;44.63;101795.63;5075543;28;45391;-71
2022/05/14 05:13:44;;;;;;;;;8.75;3.00;;;;;17.34;44.67;101796.66;5064049;28;45496;-72
2022/05/14 05:16:10;;;;;;;;;3.25;2.00;;;;;17.36;44.61;101796.59;5070126;28;45328;-71
2022/05/14 05:18:35;;;;;;;;;2.50;2.50;;;;;17.35;44.90;101801.09;5069151;28;45462;-71
2022/05/14 05:21:01;;;;;;;;;4.25;2.50;;;;;17.32;44.74;101798.53;5074038;28;45747;-71
2022/05/14 05:23:27;;;;;;;;;4.25;2.00;;;;;17.34;44.69;101802.06;5062269;28;47874;-71
2022/05/14 05:25:56;;;;;;;;;2.50;2.25;;;;;17.34;45.06;101815.56;5081149;28;45286;-71
2022/05/14 05:28:23;;;;;;;;;2.25;2.25;;;;;17.26;44.44;101803.31;5063995;28;45689;-72
2022/05/14 05:30:49;;;;;;;;;1.50;1.50;;;;;17.28;44.67;101806.84;5074506;28;45580;-72
2022/05/14 05:33:18;;;;;;;;;0.75;0.75;;;;;17.22;44.88;101795.38;5067928;28;46298;-72
2022/05/14 05:35:44;;;;;;;;;4.75;2.75;;;;;17.25;44.75;101810.53;5064913;28;45313;-71
2022/05/14 05:38:10;;;;;;;;;2.25;2.25;;;;;17.23;44.92;101807.03;5071804;28;45369;-71
2022/05/14 05:40:36;;;;;;;;;1.25;1.25;;;;;17.21;45.13;101801.72;5065936;28;45637;-71
2022/05/14 05:43:07;;;;;;;;;2.25;2.25;;;;;17.22;45.13;101803.47;5071821;28;46006;-71
2022/05/14 05:45:33;;;;;;;;;4.00;4.00;;;;;17.17;45.09;101810.00;5071288;28;45477;-71
2022/05/14 05:47:58;;;;;;;;;4.00;2.50;;;;;17.18;45.05;101815.31;5061239;28;45423;-69
2022/05/14 05:50:24;;;;;;;;;3.75;3.75;;;;;17.18;45.26;101809.94;5066041;28;45469;-71
2022/05/14 05:52:51;;;;;;;;;1.00;1.00;;;;;17.22;44.95;101810.66;5074907;27;45477;-71
2022/05/14 05:58:01;;;;;;;;;2.00;2.00;;;;;17.26;45.24;101806.91;5078040;28;45475;-75
2022/05/14 06:00:28;;;;;;;;;2.75;2.75;;;;;17.27;45.08;101818.56;5071721;28;45263;-71
2022/05/14 06:02:54;;;;;;;;;4.00;3.50;;;;;17.23;45.15;101802.50;5069410;28;46151;-71
2022/05/14 06:05:20;;;;;;;;;3.25;2.75;;;;;17.34;44.92;101811.97;5070364;28;45466;-73
2022/05/14 06:07:45;;;;;;;;;3.00;3.00;;;;;17.32;45.02;101820.13;5080821;27;45385;-73
2022/05/14 06:10:14;;;;;;;;;5.00;2.00;;;;;17.35;44.83;101822.69;5074840;28;45554;-72
2022/05/14 06:12:40;;;;;;;;;2.50;2.00;;;;;17.34;44.94;101825.44;5065515;28;46966;-72
2022/05/14 06:15:17;;;;;;;;;2.50;2.50;;;;;17.30;45.13;101824.72;5073690;28;45494;-72
2022/05/14 06:17:43;;;;;;;;;5.50;3.00;;;;;17.30;45.33;101832.81;5065118;28;45472;-71
2022/05/14 06:20:11;;;;;;;;;4.00;3.25;;;;;17.30;45.23;101834.63;5061378;28;45664;-71
2022/05/14 06:22:37;;;;;;;;;3.00;2.50;;;;;17.27;45.04;101829.38;5072336;28;47133;-71
2022/05/14 06:25:04;;;;;;;;;3.75;3.00;;;;;17.27;45.09;101834.75;5065328;28;45252;-71
2022/05/14 06:27:29;;;;;;;;;5.50;2.00;;;;;17.31;45.28;101826.47;5063995;28;45509;-71
2022/05/14 06:29:54;;;;;;;;;4.50;4.50;;;;;17.38;45.42;101841.44;5071839;28;45373;-71
2022/05/14 06:32:20;;;;;;;;;5.25;4.50;;;;;17.35;44.98;101822.69;5075291;28;45478;-71
2022/05/14 06:34:45;;;;;;;;;5.25;4.50;;;;;17.39;44.65;101834.22;5077270;28;45345;-70
2022/05/14 06:37:12;;;;;;;;;3.00;3.00;;;;;17.41;45.15;101838.63;5064238;28;45602;-71
2022/05/14 06:39:38;;;;;;;;;4.00;3.75;;;;;17.46;45.37;101841.13;5055372;28;47371;-72
2022/05/14 06:42:04;;;;;;;;;3.00;3.00;;;;;17.45;45.15;101835.78;5060446;28;46008;-72
2022/05/14 06:44:30;;;;;;;;;6.50;4.00;;;;;17.52;45.34;101845.38;5067900;28;45361;-73
2022/05/14 06:46:55;;;;;;;;;4.00;3.50;;;;;17.51;45.35;101844.50;5060257;28;45745;-72
2022/05/14 06:49:20;;;;;;;;;3.25;3.25;;;;;17.46;44.93;101833.03;5062916;28;45374;-73
2022/05/14 06:51:46;;;;;;;;;7.25;5.75;;;;;17.51;45.19;101833.69;5061041;28;45446;-73
2022/05/14 06:54:12;;;;;;;;;6.50;4.75;;;;;17.52;45.08;101839.97;5066260;28;45449;-73
2022/05/14 06:56:43;;;;;;;;;4.50;3.50;;;;;17.54;45.22;101833.56;5075531;28;45340;-72
2022/05/14 06:59:09;;;;;;;;;4.00;4.00;;;;;17.59;45.30;101831.53;5069978;28;45398;-73
2022/05/14 07:01:38;;;;;;;;;5.00;5.00;;;;;17.57;44.92;101833.44;5065417;28;46180;-73
2022/05/14 07:06:51;;;;;;;;;3.75;2.25;;;;;17.56;45.28;101844.31;5069495;28;45677;-73
2022/05/14 07:09:23;;;;;;;;;4.25;2.50;;;;;17.58;45.31;101843.28;5065484;28;45342;-73
2022/05/14 07:11:50;;;;;;;;;4.75;4.00;;;;;17.59;45.07;101853.13;5068895;28;46279;-72
2022/05/14 07:14:19;;;;;;;;;4.75;3.25;;;;;17.57;44.73;101852.34;5048490;27;45596;-71
2022/05/14 07:16:47;;;;;;;;;5.50;2.75;;;;;17.60;45.12;101837.81;5029931;28;45372;-71
2022/05/14 07:19:12;;;;;;;;;4.50;3.50;;;;;17.67;45.02;101839.28;5030309;28;45799;-71
2022/05/14 07:21:41;;;;;;;;;6.00;3.75;;;;;17.71;45.18;101835.50;5019787;28;45369;-71
2022/05/14 07:24:09;;;;;;;;;3.25;3.25;;;;;17.75;45.38;101837.13;5032549;28;45524;-71
2022/05/14 07:26:37;;;;;;;;;4.75;4.00;;;;;17.80;45.03;101836.03;5024153;28;45501;-71
2022/05/14 07:29:11;;;;;;;;;3.50;3.50;;;;;17.81;45.14;101829.69;5023659;28;45468;-71
2022/05/14 07:31:38;;;;;;;;;5.00;4.00;;;;;17.85;44.94;101823.22;5028175;28;46159;-71
2022/05/14 07:34:04;;;;;;;;;2.75;2.75;;;;;17.87;44.90;101830.31;5036129;28;45316;-71
2022/05/14 07:36:33;;;;;;;;;8.50;3.25;;;;;17.93;45.15;101831.88;5024286;28;45520;-71
2022/05/14 07:39:04;;;;;;;;;7.00;3.75;;;;;17.96;45.20;101829.91;5032597;28;45400;-71
2022/05/14 07:41:31;;;;;;;;;4.00;3.50;;;;;17.97;44.56;101836.16;5030030;28;47269;-73
2022/05/14 07:44:00;;;;;;;;;2.75;2.50;;;;;17.95;44.67;101830.84;5026984;28;46094;-73
2022/05/14 07:46:31;;;;;;;;;3.00;2.75;;;;;17.99;44.90;101828.00;5019001;28;45433;-73
2022/05/14 07:48:58;;;;;;;;;6.00;4.00;;;;;18.00;44.58;101825.22;5027835;28;45378;-72
2022/05/14 07:51:25;;;;;;;;;4.25;2.25;;;;;18.03;44.42;101816.13;5020871;28;46407;-71
2022/05/14 07:53:51;;;;;;;;;3.25;3.00;;;;;17.95;44.79;101813.75;5018778;28;45402;-71
2022/05/14 07:56:17;;;;;;;;;4.00;2.75;;;;;17.99;44.54;101818.06;5019522;28;45425;-71
2022/05/14 07:58:43;;;;;;;;;2.75;2.75;;;;;17.99;44.57;101812.66;5018316;28;45843;-71
2022/05/14 08:01:09;;;;;;;;;4.50;2.50;;;;;18.13;44.65;101821.00;5027837;28;46051;-72
2022/05/14 08:03:34;;;;;;;;;2.75;2.25;;;;;18.19;44.45;101817.13;5020641;28;45422;-72
2022/05/14 08:06:00;;;;;;;;;2.50;1.75;;;;;18.24;44.40;101820.50;5025622;28;45515;-73
2022/05/14 08:08:26;;;;;;;;;4.00;2.75;;;;;18.30;44.20;101819.34;5029009;28;45296;-73
2022/05/14 08:10:52;;;;;;;;;3.50;2.00;;;;;18.33;44.49;101811.94;5026040;28;46051;-73
2022/05/14 08:13:19;;;;;;;;;3.75;3.00;;;;;18.36;44.33;101810.94;5026097;28;45421;-74
2022/05/14 08:15:46;;;;;;;;;4.00;3.00;;;;;18.35;44.03;101806.47;5020111;28;45374;-73
2022/05/14 08:18:12;;;;;;;;;3.00;3.00;;;;;18.38;44.40;101803.63;5033369;28;45353;-72
2022/05/14 08:20:41;;;;;;;;;3.75;3.75;;;;;18.49;44.64;101812.09;5031823;28;45669;-72
2022/05/14 08:25:52;;;;;;;;;6.50;3.75;;;;;18.58;44.66;101815.31;5026335;28;45561;-72
2022/05/14 08:28:18;;;;;;;;;3.50;3.50;;;;;18.63;44.68;101807.84;5028381;28;45476;-74
2022/05/14 08:30:44;;;;;;;;;2.25;2.25;;;;;18.67;44.54;101804.88;5043702;28;46026;-73
2022/05/14 08:33:09;;;;;;;;;4.00;3.00;;;;;18.71;44.48;101811.03;5031495;28;45401;-74
2022/05/14 08:35:36;;;;;;;;;3.75;2.50;;;;;18.72;44.00;101810.06;5034583;28;45418;-73
2022/05/14 08:38:01;;;;;;;;;3.00;3.00;;;;;18.77;43.92;101810.72;5025571;28;45537;-73
2022/05/14 08:40:38;;;;;;;;;3.00;3.00;;;;;18.85;44.66;101808.53;5021767;28;46111;-73
2022/05/14 08:43:09;;;;;;;;;3.00;2.50;;;;;18.91;44.00;101806.47;5028231;28;45421;-73
2022/05/14 08:45:37;;;;;;;;;3.00;3.00;;;;;18.99;44.31;101812.38;5031966;28;45584;-73
2022/05/14 08:48:26;;;;;;;;;2.75;2.00;;;;;19.00;44.50;101796.06;5023072;28;45215;-73
2022/05/14 08:51:27;;;;;;;;;4.00;4.00;;;;;19.10;44.50;101801.03;5036293;28;46421;-73
2022/05/14 08:53:53;;;;;;;;;2.00;2.00;;;;;19.12;43.98;101793.69;5013884;28;45438;-74
2022/05/14 08:56:21;;;;;;;;;3.50;3.25;;;;;19.21;43.77;101793.19;5036693;28;45478;-73
2022/05/14 08:59:25;;;;;;;;;7.00;6.25;;;;;19.28;44.25;101804.59;5024668;28;45189;-73
2022/05/14 09:01:56;;;;;;;;;2.00;2.00;;;;;19.34;43.83;101798.84;5032384;28;45259;-73
2022/05/14 09:04:22;;;;;;;;;5.75;3.00;;;;;19.34;43.71;101793.44;5040395;28;45595;-73
2022/05/14 09:06:50;;;;;;;;;3.00;3.00;;;;;19.41;43.80;101793.06;5026233;28;45369;-73
2022/05/14 09:09:16;;;;;;;;;4.00;4.00;;;;;19.49;43.90;101802.59;5028742;28;45398;-73
2022/05/14 09:11:51;;;;;;;;;3.00;3.00;;;;;19.53;43.33;101805.06;5022220;28;45403;-73
2022/05/14 09:14:36;;;;;;;;;2.00;1.50;;;;;19.55;43.56;101804.97;5022937;28;45628;-73
2022/05/14 09:17:16;;;;;;;;;2.00;2.00;;;;;19.60;43.00;101805.59;5022823;28;45232;-73
2022/05/14 09:19:44;;;;;;;;;2.00;2.00;;;;;19.63;42.98;101805.44;5029755;28;45401;-73
2022/05/14 09:22:12;;;;;;;;;3.00;3.00;;;;;19.69;42.87;101804.22;5033713;28;46239;-73
2022/05/14 09:24:44;;;;;;;;;3.00;3.00;;;;;19.62;42.93;101780.19;5030234;28;45388;-73
2022/05/14 09:27:20;;;;;;;;;5.00;4.00;;;;;19.71;43.24;101786.94;5026883;28;45487;-73
2022/05/14 09:29:47;;;;;;;;;4.00;2.75;;;;;19.80;42.64;101789.19;5032854;28;45175;-73
2022/05/14 09:32:21;;;;;;;;;4.00;4.00;;;;;19.82;42.53;101783.69;5038516;28;45489;-73
2022/05/14 09:34:48;;;;;;;;;4.50;2.50;;;;;19.82;42.59;101778.25;5027923;28;45473;-73
2022/05/14 09:37:20;;;;;;;;;3.25;3.25;;;;;19.84;42.40;101779.03;5034154;28;45452;-73
2022/05/14 09:40:00;;;;;;;;;5.50;4.00;;;;;19.92;42.78;101784.06;5024431;28;45225;-73
2022/05/14 09:42:35;;;;;;;;;5.25;4.00;;;;;19.91;42.79;101785.91;5044731;28;46409;-73
2022/05/14 09:45:01;;;;;;;;;3.75;3.75;;;;;19.98;42.20;101772.88;5036988;28;45397;-73
2022/05/14 09:47:33;;;;;;;;;3.75;2.50;;;;;20.05;42.28;101773.41;5040749;28;45534;-73
2022/05/14 09:50:06;;;;;;;;;2.00;1.50;;;;;20.10;42.24;101776.75;5036507;28;45473;-74
2022/05/14 09:52:34;;;;;;;;;2.00;2.00;;;;;20.12;42.46;101762.13;5039793;28;46271;-74
2022/05/14 09:55:04;;;;;;;;;3.75;3.00;;;;;20.20;42.24;101768.94;5031770;28;45559;-73
2022/05/14 09:57:38;;;;;;;;;3.00;3.00;;;;;20.24;41.72;101756.97;5021805;28;45285;-73
2022/05/14 10:00:19;;;;;;;;;2.00;2.00;;;;;20.28;42.12;101761.25;5025452;28;45394;-73
2022/05/14 10:02:50;;;;;;;;;2.00;2.00;;;;;20.30;41.54;101746.66;5019805;28;45801;-72
2022/05/14 10:05:36;;;;;;;;;4.25;3.25;;;;;20.30;41.45;101740.38;5026759;28;45920;-73
2022/05/14 10:08:05;;;;;;;;;3.25;3.25;;;;;20.38;41.39;101748.94;5020867;28;45507;-73
2022/05/14 10:10:51;;;;;;;;;3.00;2.00;;;;;20.41;41.19;101748.72;5029458;28;45753;-71
2022/05/14 10:13:27;;;;;;;;;3.25;3.25;;;;;20.43;41.37;101740.50;5036917;28;45804;-72
2022/05/14 10:16:14;;;;;;;;;2.00;2.00;;;;;20.46;41.31;101741.19;5022673;28;45642;-72
2022/05/14 10:19:04;;;;;;;;;2.75;2.00;;;;;20.51;41.05;101744.53;5026755;28;45552;-72
2022/05/14 10:21:47;;;;;;;;;2.00;2.00;;;;;20.56;40.91;101746.97;5017473;28;45727;-71
2022/05/14 10:27:28;;;;;;;;;3.25;3.25;;;;;20.62;40.91;101749.31;5035010;28;45684;-73
2022/05/14 10:30:08;;;;;;;;;2.00;2.00;;;;;20.65;40.60;101743.75;5031874;28;45536;-73
2022/05/14 10:32:34;;;;;;;;;4.00;2.50;;;;;20.67;40.43;101744.53;5036353;28;45852;-73
2022/05/14 10:35:37;;;;;;;;;4.25;3.25;;;;;20.71;40.77;101742.50;5026487;28;45522;-71
2022/05/14 10:38:14;;;;;;;;;2.00;2.00;;;;;20.74;40.41;101726.06;5029248;28;45372;-73
2022/05/14 10:40:46;;;;;;;;;3.00;2.75;;;;;20.80;40.30;101735.66;5023607;28;45578;-73
2022/05/14 10:43:26;;;;;;;;;4.50;3.00;;;;;20.82;40.76;101737.31;5026385;28;45544;-73
2022/05/14 10:45:55;;;;;;;;;2.50;2.00;;;;;20.85;40.16;101736.28;5025259;28;45904;-72
2022/05/14 10:48:33;;;;;;;;;2.75;2.75;;;;;20.87;40.33;101724.34;5020034;28;46000;-73
2022/05/14 10:51:01;;;;;;;;;4.25;2.00;;;;;20.86;40.25;101722.59;5025537;28;45651;-72
2022/05/14 10:53:26;;;;;;;;;2.25;2.25;;;;;20.84;39.45;101710.97;5016942;28;45426;-73
2022/05/14 10:56:07;;;;;;;;;3.00;2.00;;;;;20.89;39.88;101716.97;5016358;28;46594;-73
2022/05/14 10:58:51;;;;;;;;;3.00;2.75;;;;;20.96;39.92;101722.06;5025518;28;45512;-73
2022/05/14 11:01:30;;;;;;;;;2.25;2.25;;;;;20.99;39.79;101717.31;5031594;28;45591;-72
2022/05/14 11:04:10;;;;;;;;;2.50;2.50;;;;;21.01;39.41;101714.50;5018913;28;45396;-73
2022/05/14 11:06:50;;;;;;;;;4.00;4.00;;;;;21.01;39.79;101715.34;5025399;28;45529;-72
2022/05/14 11:09:23;;;;;;;;;4.25;4.00;;;;;21.06;40.06;101724.09;5026759;28;45621;-72
2022/05/14 11:11:55;;;;;;;;;7.25;7.00;;;;;21.10;40.00;101720.25;5022978;28;45544;-70
2022/05/14 11:14:21;;;;;;;;;3.00;3.00;;;;;21.13;39.12;101713.72;5026856;28;45497;-71
2022/05/14 11:16:49;;;;;;;;;3.00;3.00;;;;;21.16;39.77;101710.84;5024725;28;47113;-70
2022/05/14 11:19:33;;;;;;;;;3.75;3.00;;;;;21.19;39.27;101716.09;5032495;28;45646;-70
2022/05/14 11:22:00;;;;;;;;;2.25;2.00;;;;;21.21;39.30;101702.41;5017253;28;45722;-71
2022/05/14 11:24:39;;;;;;;;;3.50;3.00;;;;;21.28;39.00;101692.91;5017130;28;45862;-72
2022/05/14 11:27:07;;;;;;;;;4.00;4.00;;;;;21.32;39.16;101686.34;5016209;28;46393;-71
2022/05/14 11:30:07;;;;;;;;;3.75;2.50;;;;;21.35;38.81;101694.28;5025026;28;45610;-71
2022/05/14 11:32:45;;;;;;;;;3.00;3.00;;;;;21.39;38.89;101692.25;5010036;28;45561;-71
2022/05/14 11:35:12;;;;;;;;;3.25;2.50;;;;;21.38;39.10;101679.63;5035307;28;45506;-71
2022/05/14 11:37:43;;;;;;;;;2.75;2.75;;;;;21.46;38.53;101674.59;5036028;28;45576;-71
2022/05/14 11:40:19;;;;;;;;;3.00;3.00;;;;;21.49;38.72;101670.84;5019208;28;45718;-71
2022/05/14 11:42:48;;;;;;;;;3.75;3.75;;;;;21.60;38.48;101673.72;5020087;28;45529;-70
2022/05/14 11:45:13;;;;;;;;;4.25;3.25;;;;;21.64;38.54;101681.59;5020231;28;45319;-70
2022/05/14 11:47:56;;;;;;;;;3.50;3.25;;;;;21.69;38.29;101688.59;5031902;28;45319;-71